sensor_id;sensor_type;location;lat;lon;timestamp;temperature;humidity
3794;DHT22;1912;51.358;12.282;2023-07-13T03:45:33;19.10;1.00
3794;DHT22;1912;51.358;12.282;2023-07-13T03:47:59;19.20;1.00
3794;DHT22;1912;51.358;12.282;2023-07-13T03:50:24;19.20;1.00
3794;DHT22;1912;51.358;12.282;2023-07-13T03:52:50;19.20;1.00
3794;DHT22;1912;51.358;12.282;2023-07-13T03:55:16;19.10;1.00
3794;DHT22;1912;51.358;12.282;2023-07-13T03:57:42;18.90;1.00
3794;DHT22;1912;51.358;12.282;2023-07-13T04:00:09;18.80;1.00
3794;DHT22;1912;51.358;12.282;2023-07-13T04:02:35;18.70;1.00
3794;DHT22;1912;51.358;12.282;2023-07-13T04:05:02;18.70;1.00
3794;DHT22;1912;51.358;12.282;2023-07-13T04:07:28;18.60;1.00
3794;DHT22;1912;51.358;12.282;2023-07-13T04:09:54;18.50;1.00
3794;DHT22;1912;51.358;12.282;2023-07-13T04:12:19;18.50;1.00
3794;DHT22;1912;51.358;12.282;2023-07-13T04:14:45;18.60;1.00
3794;DHT22;1912;51.358;12.282;2023-07-13T04:17:11;18.70;1.00
3794;DHT22;1912;51.358;12.282;2023-07-13T04:19:37;18.60;1.00
3794;DHT22;1912;51.358;12.282;2023-07-13T04:22:02;18.60;1.00
3794;DHT22;1912;51.358;12.282;2023-07-13T04:24:28;18.60;1.00
3794;DHT22;1912;51.358;12.282;2023-07-13T04:26:54;18.50;1.00
3794;DHT22;1912;51.358;12.282;2023-07-13T04:29:19;18.60;1.00
3794;DHT22;1912;51.358;12.282;2023-07-13T04:31:45;18.50;1.00
3794;DHT22;1912;51.358;12.282;2023-07-13T04:34:12;18.60;1.00
3794;DHT22;1912;51.358;12.282;2023-07-13T04:36:37;18.60;1.00
3794;DHT22;1912;51.358;12.282;2023-07-13T04:39:03;18.60;1.00
3794;DHT22;1912;51.358;12.282;2023-07-13T04:41:29;18.50;1.00
3794;DHT22;1912;51.358;12.282;2023-07-13T04:43:54;18.50;1.00
3794;DHT22;1912;51.358;12.282;2023-07-13T04:46:20;18.60;1.00
3794;DHT22;1912;51.358;12.282;2023-07-13T04:48:46;18.70;1.00
3794;DHT22;1912;51.358;12.282;2023-07-13T04:51:14;18.60;1.00
3794;DHT22;1912;51.358;12.282;2023-07-13T04:53:40;18.50;1.00
3794;DHT22;1912;51.358;12.282;2023-07-13T04:56:05;18.60;1.00
3794;DHT22;1912;51.358;12.282;2023-07-13T04:58:31;18.70;1.00
3794;DHT22;1912;51.358;12.282;2023-07-13T05:01:02;18.80;1.00
3794;DHT22;1912;51.358;12.282;2023-07-13T05:03:30;18.80;1.00
3794;DHT22;1912;51.358;12.282;2023-07-13T05:05:58;18.90;1.00
3794;DHT22;1912;51.358;12.282;2023-07-13T05:08:28;18.90;1.00
3794;DHT22;1912;51.358;12.282;2023-07-13T05:10:54;18.80;1.00
3794;DHT22;1912;51.358;12.282;2023-07-13T05:13:20;18.80;1.00
3794;DHT22;1912;51.358;12.282;2023-07-13T05:15:55;18.80;1.00
3794;DHT22;1912;51.358;12.282;2023-07-13T05:18:22;18.80;1.00
3794;DHT22;1912;51.358;12.282;2023-07-13T05:20:56;18.90;1.00
3794;DHT22;1912;51.358;12.282;2023-07-13T05:23:33;19.00;1.00
3794;DHT22;1912;51.358;12.282;2023-07-13T05:26:00;19.00;1.00
3794;DHT22;1912;51.358;12.282;2023-07-13T05:28:27;19.00;1.00
3794;DHT22;1912;51.358;12.282;2023-07-13T05:30:53;19.10;1.00
3794;DHT22;1912;51.358;12.282;2023-07-13T05:33:22;19.40;1.00
3794;DHT22;1912;51.358;12.282;2023-07-13T05:35:47;19.50;1.00
3794;DHT22;1912;51.358;12.282;2023-07-13T05:38:13;19.70;1.00
3794;DHT22;1912;51.358;12.282;2023-07-13T05:40:39;19.80;1.00
3794;DHT22;1912;51.358;12.282;2023-07-13T05:43:05;20.30;1.00
3794;DHT22;1912;51.358;12.282;2023-07-13T05:45:30;20.80;1.00
3794;DHT22;1912;51.358;12.282;2023-07-13T05:47:56;21.20;1.00
3794;DHT22;1912;51.358;12.282;2023-07-13T05:50:21;21.90;1.00
3794;DHT22;1912;51.358;12.282;2023-07-13T05:52:47;22.50;1.00
3794;DHT22;1912;51.358;12.282;2023-07-13T05:55:13;22.90;1.00
3794;DHT22;1912;51.358;12.282;2023-07-13T05:57:39;23.10;1.00
3794;DHT22;1912;51.358;12.282;2023-07-13T06:00:05;23.70;1.00
3794;DHT22;1912;51.358;12.282;2023-07-13T06:02:31;23.80;1.00
3794;DHT22;1912;51.358;12.282;2023-07-13T06:04:57;23.70;1.00
3794;DHT22;1912;51.358;12.282;2023-07-13T06:07:22;23.40;1.00
3794;DHT22;1912;51.358;12.282;2023-07-13T06:09:48;23.70;1.00
3794;DHT22;1912;51.358;12.282;2023-07-13T06:12:14;23.70;1.00
3794;DHT22;1912;51.358;12.282;2023-07-13T06:14:39;24.10;1.00
3794;DHT22;1912;51.358;12.282;2023-07-13T06:17:05;24.50;1.00
3794;DHT22;1912;51.358;12.282;2023-07-13T06:19:31;24.60;1.00
3794;DHT22;1912;51.358;12.282;2023-07-13T06:21:56;24.80;1.00
3794;DHT22;1912;51.358;12.282;2023-07-13T06:24:24;24.60;1.00
3794;DHT22;1912;51.358;12.282;2023-07-13T06:26:50;24.80;1.00
3794;DHT22;1912;51.358;12.282;2023-07-13T06:29:15;25.00;1.00
3794;DHT22;1912;51.358;12.282;2023-07-13T06:31:41;25.20;1.00
3794;DHT22;1912;51.358;12.282;2023-07-13T06:34:07;25.30;1.00
3794;DHT22;1912;51.358;12.282;2023-07-13T06:36:33;25.10;1.00
3794;DHT22;1912;51.358;12.282;2023-07-13T06:38:58;24.50;1.00
3794;DHT22;1912;51.358;12.282;2023-07-13T06:41:24;24.60;1.00
3794;DHT22;1912;51.358;12.282;2023-07-13T06:43:53;24.60;1.00
3794;DHT22;1912;51.358;12.282;2023-07-13T06:46:21;24.70;1.00
3794;DHT22;1912;51.358;12.282;2023-07-13T06:48:47;24.50;1.00
3794;DHT22;1912;51.358;12.282;2023-07-13T06:51:13;24.60;1.00
3794;DHT22;1912;51.358;12.282;2023-07-13T06:53:39;24.60;1.00
3794;DHT22;1912;51.358;12.282;2023-07-13T06:56:05;24.70;1.00
3794;DHT22;1912;51.358;12.282;2023-07-13T06:58:30;24.90;1.00
3794;DHT22;1912;51.358;12.282;2023-07-13T07:00:59;24.90;1.00
3794;DHT22;1912;51.358;12.282;2023-07-13T07:03:25;25.10;1.00
3794;DHT22;1912;51.358;12.282;2023-07-13T07:05:50;25.10;1.00
3794;DHT22;1912;51.358;12.282;2023-07-13T07:08:16;25.40;1.00
3794;DHT22;1912;51.358;12.282;2023-07-13T07:10:42;25.40;1.00
3794;DHT22;1912;51.358;12.282;2023-07-13T07:13:07;25.50;1.00
3794;DHT22;1912;51.358;12.282;2023-07-13T07:15:34;24.80;1.00
3794;DHT22;1912;51.358;12.282;2023-07-13T07:18:00;24.90;1.00
3794;DHT22;1912;51.358;12.282;2023-07-13T07:20:26;25.00;1.00
3794;DHT22;1912;51.358;12.282;2023-07-13T07:22:52;25.00;1.00
3794;DHT22;1912;51.358;12.282;2023-07-13T07:25:18;25.40;1.00
3794;DHT22;1912;51.358;12.282;2023-07-13T07:27:44;25.60;1.00
3794;DHT22;1912;51.358;12.282;2023-07-13T07:30:10;25.50;1.00
3794;DHT22;1912;51.358;12.282;2023-07-13T07:32:36;25.60;1.00
3794;DHT22;1912;51.358;12.282;2023-07-13T07:35:02;25.40;1.00
3794;DHT22;1912;51.358;12.282;2023-07-13T07:37:28;25.30;1.00
3794;DHT22;1912;51.358;12.282;2023-07-13T07:39:53;25.20;1.00
3794;DHT22;1912;51.358;12.282;2023-07-13T07:42:19;25.30;1.00
3794;DHT22;1912;51.358;12.282;2023-07-13T07:44:45;25.40;1.00
3794;DHT22;1912;51.358;12.282;2023-07-13T07:47:10;25.20;1.00
3794;DHT22;1912;51.358;12.282;2023-07-13T07:49:37;25.50;1.00
3794;DHT22;1912;51.358;12.282;2023-07-13T07:52:03;26.00;1.00
3794;DHT22;1912;51.358;12.282;2023-07-13T07:54:29;26.80;1.00
3794;DHT22;1912;51.358;12.282;2023-07-13T07:56:55;27.00;1.00
3794;DHT22;1912;51.358;12.282;2023-07-13T07:59:21;26.80;1.00
3794;DHT22;1912;51.358;12.282;2023-07-13T08:01:46;27.30;1.00
3794;DHT22;1912;51.358;12.282;2023-07-13T08:04:15;27.50;1.00
3794;DHT22;1912;51.358;12.282;2023-07-13T08:06:41;27.50;1.00
3794;DHT22;1912;51.358;12.282;2023-07-13T08:09:07;27.30;1.00
3794;DHT22;1912;51.358;12.282;2023-07-13T08:11:33;26.80;1.00
3794;DHT22;1912;51.358;12.282;2023-07-13T08:13:59;26.80;1.00
3794;DHT22;1912;51.358;12.282;2023-07-13T08:16:26;27.00;1.00
3794;DHT22;1912;51.358;12.282;2023-07-13T08:18:52;27.10;1.00
3794;DHT22;1912;51.358;12.282;2023-07-13T08:21:17;27.00;1.00
3794;DHT22;1912;51.358;12.282;2023-07-13T08:23:47;27.20;1.00
3794;DHT22;1912;51.358;12.282;2023-07-13T08:26:12;27.00;1.00
3794;DHT22;1912;51.358;12.282;2023-07-13T08:28:38;27.00;1.00
3794;DHT22;1912;51.358;12.282;2023-07-13T08:31:06;27.50;1.00
3794;DHT22;1912;51.358;12.282;2023-07-13T08:33:33;27.90;1.00
3794;DHT22;1912;51.358;12.282;2023-07-13T08:36:00;28.00;1.00
3794;DHT22;1912;51.358;12.282;2023-07-13T08:38:25;27.70;1.00
3794;DHT22;1912;51.358;12.282;2023-07-13T08:40:53;28.10;1.00
3794;DHT22;1912;51.358;12.282;2023-07-13T08:43:30;28.60;1.00
3794;DHT22;1912;51.358;12.282;2023-07-13T08:46:44;28.10;1.00
3794;DHT22;1912;51.358;12.282;2023-07-13T08:49:01;28.20;1.00
3794;DHT22;1912;51.358;12.282;2023-07-13T08:51:35;28.00;1.00
3794;DHT22;1912;51.358;12.282;2023-07-13T08:54:14;28.90;1.00
3794;DHT22;1912;51.358;12.282;2023-07-13T08:56:45;29.10;1.00
3794;DHT22;1912;51.358;12.282;2023-07-13T08:59:15;28.40;1.00
3794;DHT22;1912;51.358;12.282;2023-07-13T09:04:45;27.80;1.00
3794;DHT22;1912;51.358;12.282;2023-07-13T09:10:31;27.10;1.00
3794;DHT22;1912;51.358;12.282;2023-07-13T09:16:03;27.00;1.00
3794;DHT22;1912;51.358;12.282;2023-07-13T09:18:38;26.90;1.00
3794;DHT22;1912;51.358;12.282;2023-07-13T09:21:32;27.30;1.00
3794;DHT22;1912;51.358;12.282;2023-07-13T09:24:16;27.30;1.00
3794;DHT22;1912;51.358;12.282;2023-07-13T09:27:17;27.20;1.00
3794;DHT22;1912;51.358;12.282;2023-07-13T09:29:58;27.60;1.00
3794;DHT22;1912;51.358;12.282;2023-07-13T09:32:36;28.20;1.00
3794;DHT22;1912;51.358;12.282;2023-07-13T09:35:11;27.90;1.00
3794;DHT22;1912;51.358;12.282;2023-07-13T09:37:38;27.30;1.00
3794;DHT22;1912;51.358;12.282;2023-07-13T09:40:15;27.20;1.00
3794;DHT22;1912;51.358;12.282;2023-07-13T09:42:48;27.70;1.00
3794;DHT22;1912;51.358;12.282;2023-07-13T09:45:25;27.50;1.00
3794;DHT22;1912;51.358;12.282;2023-07-13T09:48:05;27.70;1.00
3794;DHT22;1912;51.358;12.282;2023-07-13T09:50:34;27.40;1.00
3794;DHT22;1912;51.358;12.282;2023-07-13T09:53:01;27.60;1.00
3794;DHT22;1912;51.358;12.282;2023-07-13T09:55:36;28.30;1.00
3794;DHT22;1912;51.358;12.282;2023-07-13T09:58:18;28.50;1.00
3794;DHT22;1912;51.358;12.282;2023-07-13T10:00:55;28.40;1.00
3794;DHT22;1912;51.358;12.282;2023-07-13T10:03:31;28.30;1.00
3794;DHT22;1912;51.358;12.282;2023-07-13T10:06:17;28.50;1.00
3794;DHT22;1912;51.358;12.282;2023-07-13T10:08:45;28.20;1.00
3794;DHT22;1912;51.358;12.282;2023-07-13T10:11:23;28.20;1.00
3794;DHT22;1912;51.358;12.282;2023-07-13T10:13:57;28.10;1.00
3794;DHT22;1912;51.358;12.282;2023-07-13T10:16:28;26.80;1.00
3794;DHT22;1912;51.358;12.282;2023-07-13T10:19:00;27.10;1.00
3794;DHT22;1912;51.358;12.282;2023-07-13T10:21:34;26.80;1.00
3794;DHT22;1912;51.358;12.282;2023-07-13T10:24:23;26.70;1.00
3794;DHT22;1912;51.358;12.282;2023-07-13T10:27:05;26.60;1.00
3794;DHT22;1912;51.358;12.282;2023-07-13T10:29:42;27.10;1.00
3794;DHT22;1912;51.358;12.282;2023-07-13T10:32:11;27.30;1.00
3794;DHT22;1912;51.358;12.282;2023-07-13T10:34:38;28.00;1.00
3794;DHT22;1912;51.358;12.282;2023-07-13T10:37:06;28.90;1.00
3794;DHT22;1912;51.358;12.282;2023-07-13T10:39:35;29.00;1.00
3794;DHT22;1912;51.358;12.282;2023-07-13T10:42:05;28.10;1.00
3794;DHT22;1912;51.358;12.282;2023-07-13T10:44:33;28.00;1.00
3794;DHT22;1912;51.358;12.282;2023-07-13T10:47:02;27.80;1.00
3794;DHT22;1912;51.358;12.282;2023-07-13T10:49:32;27.40;1.00
3794;DHT22;1912;51.358;12.282;2023-07-13T10:52:00;27.50;1.00
3794;DHT22;1912;51.358;12.282;2023-07-13T10:57:15;27.90;1.00
3794;DHT22;1912;51.358;12.282;2023-07-13T10:59:47;28.50;1.00
3794;DHT22;1912;51.358;12.282;2023-07-13T11:02:28;28.70;1.00
3794;DHT22;1912;51.358;12.282;2023-07-13T11:04:56;28.60;1.00
3794;DHT22;1912;51.358;12.282;2023-07-13T11:07:30;28.90;1.00
3794;DHT22;1912;51.358;12.282;2023-07-13T11:10:04;28.50;1.00
3794;DHT22;1912;51.358;12.282;2023-07-13T11:12:52;28.70;1.00
3794;DHT22;1912;51.358;12.282;2023-07-13T11:15:44;28.50;1.00
3794;DHT22;1912;51.358;12.282;2023-07-13T11:18:22;28.50;1.00
3794;DHT22;1912;51.358;12.282;2023-07-13T11:20:49;28.50;1.00
3794;DHT22;1912;51.358;12.282;2023-07-13T11:25:43;29.30;1.00
3794;DHT22;1912;51.358;12.282;2023-07-13T11:31:02;29.10;1.00
3794;DHT22;1912;51.358;12.282;2023-07-13T11:36:14;29.60;1.00
3794;DHT22;1912;51.358;12.282;2023-07-13T11:39:05;30.00;1.00
3794;DHT22;1912;51.358;12.282;2023-07-13T11:41:53;30.20;1.00
3794;DHT22;1912;51.358;12.282;2023-07-13T11:44:24;30.30;1.00
3794;DHT22;1912;51.358;12.282;2023-07-13T11:46:55;30.10;1.00
3794;DHT22;1912;51.358;12.282;2023-07-13T11:49:25;29.30;1.00
3794;DHT22;1912;51.358;12.282;2023-07-13T11:51:52;29.50;1.00
3794;DHT22;1912;51.358;12.282;2023-07-13T11:54:34;29.70;1.00
3794;DHT22;1912;51.358;12.282;2023-07-13T11:57:26;29.10;1.00
3794;DHT22;1912;51.358;12.282;2023-07-13T11:59:54;29.30;1.00
3794;DHT22;1912;51.358;12.282;2023-07-13T12:02:34;28.90;1.00
3794;DHT22;1912;51.358;12.282;2023-07-13T12:05:03;29.30;1.00
3794;DHT22;1912;51.358;12.282;2023-07-13T12:07:32;29.70;1.00
3794;DHT22;1912;51.358;12.282;2023-07-13T12:10:23;30.40;1.00
3794;DHT22;1912;51.358;12.282;2023-07-13T12:12:58;30.40;1.00
3794;DHT22;1912;51.358;12.282;2023-07-13T12:15:42;30.50;1.00
3794;DHT22;1912;51.358;12.282;2023-07-13T12:18:18;29.50;1.00
3794;DHT22;1912;51.358;12.282;2023-07-13T12:20:46;29.30;1.00
3794;DHT22;1912;51.358;12.282;2023-07-13T12:23:30;29.60;1.00
3794;DHT22;1912;51.358;12.282;2023-07-13T12:25:59;29.80;1.00
3794;DHT22;1912;51.358;12.282;2023-07-13T12:28:34;30.40;1.00
3794;DHT22;1912;51.358;12.282;2023-07-13T12:31:04;30.00;1.00
3794;DHT22;1912;51.358;12.282;2023-07-13T12:33:33;29.80;1.00
3794;DHT22;1912;51.358;12.282;2023-07-13T12:36:03;29.10;1.00
3794;DHT22;1912;51.358;12.282;2023-07-13T12:38:32;29.20;1.00
3794;DHT22;1912;51.358;12.282;2023-07-13T12:40:58;29.40;1.00
3794;DHT22;1912;51.358;12.282;2023-07-13T12:43:25;30.00;1.00
3794;DHT22;1912;51.358;12.282;2023-07-13T12:46:02;29.80;1.00
3794;DHT22;1912;51.358;12.282;2023-07-13T12:48:41;29.70;1.00
3794;DHT22;1912;51.358;12.282;2023-07-13T12:51:11;29.00;1.00
3794;DHT22;1912;51.358;12.282;2023-07-13T12:53:50;29.00;1.00
3794;DHT22;1912;51.358;12.282;2023-07-13T12:56:24;29.00;1.00
3794;DHT22;1912;51.358;12.282;2023-07-13T12:58:58;29.20;1.00
3794;DHT22;1912;51.358;12.282;2023-07-13T13:01:32;29.00;1.00
3794;DHT22;1912;51.358;12.282;2023-07-13T13:04:02;29.40;1.00
3794;DHT22;1912;51.358;12.282;2023-07-13T13:06:34;29.00;1.00
3794;DHT22;1912;51.358;12.282;2023-07-13T13:09:02;28.80;1.00
3794;DHT22;1912;51.358;12.282;2023-07-13T13:11:30;28.90;1.00
3794;DHT22;1912;51.358;12.282;2023-07-13T13:13:57;29.50;1.00
3794;DHT22;1912;51.358;12.282;2023-07-13T13:16:30;29.30;1.00
3794;DHT22;1912;51.358;12.282;2023-07-13T13:19:00;29.10;1.00
3794;DHT22;1912;51.358;12.282;2023-07-13T13:21:34;29.20;1.00
3794;DHT22;1912;51.358;12.282;2023-07-13T13:23:59;29.00;1.00
3794;DHT22;1912;51.358;12.282;2023-07-13T13:26:25;29.40;1.00
3794;DHT22;1912;51.358;12.282;2023-07-13T13:28:51;29.60;1.00
3794;DHT22;1912;51.358;12.282;2023-07-13T13:31:17;29.80;1.00
3794;DHT22;1912;51.358;12.282;2023-07-13T13:33:44;30.20;1.00
3794;DHT22;1912;51.358;12.282;2023-07-13T13:36:19;30.40;1.00
3794;DHT22;1912;51.358;12.282;2023-07-13T13:38:47;29.40;1.00
3794;DHT22;1912;51.358;12.282;2023-07-13T13:41:13;29.70;1.00
3794;DHT22;1912;51.358;12.282;2023-07-13T13:43:41;29.80;1.00
3794;DHT22;1912;51.358;12.282;2023-07-13T13:46:24;29.70;1.00
3794;DHT22;1912;51.358;12.282;2023-07-13T13:48:55;29.90;1.00
3794;DHT22;1912;51.358;12.282;2023-07-13T13:51:23;30.40;1.00
3794;DHT22;1912;51.358;12.282;2023-07-13T13:53:50;30.70;1.00
3794;DHT22;1912;51.358;12.282;2023-07-13T13:56:18;30.50;1.00
3794;DHT22;1912;51.358;12.282;2023-07-13T13:58:44;30.00;1.00
3794;DHT22;1912;51.358;12.282;2023-07-13T14:01:13;30.20;1.00
3794;DHT22;1912;51.358;12.282;2023-07-13T14:03:42;30.20;1.00
3794;DHT22;1912;51.358;12.282;2023-07-13T14:06:12;30.10;1.00
3794;DHT22;1912;51.358;12.282;2023-07-13T14:08:38;29.80;1.00
3794;DHT22;1912;51.358;12.282;2023-07-13T14:11:04;29.30;1.00
3794;DHT22;1912;51.358;12.282;2023-07-13T14:13:37;29.50;1.00
3794;DHT22;1912;51.358;12.282;2023-07-13T14:16:14;29.40;1.00
3794;DHT22;1912;51.358;12.282;2023-07-13T14:18:43;29.60;1.00
3794;DHT22;1912;51.358;12.282;2023-07-13T14:21:18;29.40;1.00
3794;DHT22;1912;51.358;12.282;2023-07-13T14:23:45;29.80;1.00
3794;DHT22;1912;51.358;12.282;2023-07-13T14:26:17;29.30;1.00
3794;DHT22;1912;51.358;12.282;2023-07-13T14:28:47;29.20;1.00
3794;DHT22;1912;51.358;12.282;2023-07-13T14:31:16;29.00;1.00
3794;DHT22;1912;51.358;12.282;2023-07-13T14:33:42;29.10;1.00
3794;DHT22;1912;51.358;12.282;2023-07-13T14:36:36;29.20;1.00
3794;DHT22;1912;51.358;12.282;2023-07-13T14:39:16;29.80;1.00
3794;DHT22;1912;51.358;12.282;2023-07-13T14:41:44;29.30;1.00
3794;DHT22;1912;51.358;12.282;2023-07-13T14:44:16;28.00;1.00
3794;DHT22;1912;51.358;12.282;2023-07-13T14:46:45;28.20;1.00
3794;DHT22;1912;51.358;12.282;2023-07-13T14:51:42;29.00;1.00
3794;DHT22;1912;51.358;12.282;2023-07-13T14:54:09;28.80;1.00
3794;DHT22;1912;51.358;12.282;2023-07-13T14:56:35;28.70;1.00
3794;DHT22;1912;51.358;12.282;2023-07-13T14:59:00;27.90;1.00
3794;DHT22;1912;51.358;12.282;2023-07-13T15:01:26;28.00;1.00
3794;DHT22;1912;51.358;12.282;2023-07-13T15:03:53;27.60;1.00
3794;DHT22;1912;51.358;12.282;2023-07-13T15:06:19;27.60;1.00
3794;DHT22;1912;51.358;12.282;2023-07-13T15:08:45;27.50;1.00
3794;DHT22;1912;51.358;12.282;2023-07-13T15:11:12;27.60;1.00
3794;DHT22;1912;51.358;12.282;2023-07-13T15:13:39;27.60;1.00
3794;DHT22;1912;51.358;12.282;2023-07-13T15:16:21;27.90;1.00
3794;DHT22;1912;51.358;12.282;2023-07-13T15:18:49;28.50;1.00
3794;DHT22;1912;51.358;12.282;2023-07-13T15:21:23;28.30;1.00
3794;DHT22;1912;51.358;12.282;2023-07-13T15:23:50;27.80;1.00
3794;DHT22;1912;51.358;12.282;2023-07-13T15:26:17;27.90;1.00
3794;DHT22;1912;51.358;12.282;2023-07-13T15:28:44;27.70;1.00
3794;DHT22;1912;51.358;12.282;2023-07-13T15:31:22;28.20;1.00
3794;DHT22;1912;51.358;12.282;2023-07-13T15:33:50;28.20;1.00
3794;DHT22;1912;51.358;12.282;2023-07-13T15:36:18;28.00;1.00
3794;DHT22;1912;51.358;12.282;2023-07-13T15:38:46;28.10;1.00
3794;DHT22;1912;51.358;12.282;2023-07-13T15:41:27;28.00;1.00
3794;DHT22;1912;51.358;12.282;2023-07-13T15:43:55;27.60;1.00
3794;DHT22;1912;51.358;12.282;2023-07-13T15:46:24;27.80;1.00
3794;DHT22;1912;51.358;12.282;2023-07-13T15:48:53;28.10;1.00
3794;DHT22;1912;51.358;12.282;2023-07-13T15:51:27;27.90;1.00
3794;DHT22;1912;51.358;12.282;2023-07-13T15:53:58;27.70;1.00
3794;DHT22;1912;51.358;12.282;2023-07-13T15:56:29;27.50;1.00
3794;DHT22;1912;51.358;12.282;2023-07-13T15:59:14;27.60;1.00
3794;DHT22;1912;51.358;12.282;2023-07-13T16:01:40;27.70;1.00
3794;DHT22;1912;51.358;12.282;2023-07-13T16:04:07;27.60;1.00
3794;DHT22;1912;51.358;12.282;2023-07-13T16:06:35;27.50;1.00
3794;DHT22;1912;51.358;12.282;2023-07-13T16:09:03;27.20;1.00
3794;DHT22;1912;51.358;12.282;2023-07-13T16:11:38;26.90;1.00
3794;DHT22;1912;51.358;12.282;2023-07-13T16:14:05;26.80;1.00
3794;DHT22;1912;51.358;12.282;2023-07-13T16:16:33;27.10;1.00
3794;DHT22;1912;51.358;12.282;2023-07-13T16:19:02;27.10;1.00
3794;DHT22;1912;51.358;12.282;2023-07-13T16:21:32;27.00;1.00
3794;DHT22;1912;51.358;12.282;2023-07-13T16:24:01;27.10;1.00
3794;DHT22;1912;51.358;12.282;2023-07-13T16:26:29;26.80;1.00
3794;DHT22;1912;51.358;12.282;2023-07-13T16:31:54;26.70;1.00
3794;DHT22;1912;51.358;12.282;2023-07-13T16:34:20;26.70;1.00
3794;DHT22;1912;51.358;12.282;2023-07-13T16:36:45;27.00;1.00
3794;DHT22;1912;51.358;12.282;2023-07-13T16:39:12;26.80;1.00
3794;DHT22;1912;51.358;12.282;2023-07-13T16:41:40;26.70;1.00
3794;DHT22;1912;51.358;12.282;2023-07-13T16:44:15;26.70;1.00
3794;DHT22;1912;51.358;12.282;2023-07-13T16:46:44;26.80;1.00
3794;DHT22;1912;51.358;12.282;2023-07-13T16:51:55;26.60;1.00
3794;DHT22;1912;51.358;12.282;2023-07-13T16:54:23;26.60;1.00
3794;DHT22;1912;51.358;12.282;2023-07-13T16:56:49;26.40;1.00
3794;DHT22;1912;51.358;12.282;2023-07-13T16:59:18;26.40;1.00
3794;DHT22;1912;51.358;12.282;2023-07-13T17:01:45;26.50;1.00
3794;DHT22;1912;51.358;12.282;2023-07-13T17:04:16;26.40;1.00
3794;DHT22;1912;51.358;12.282;2023-07-13T17:06:47;26.50;1.00
3794;DHT22;1912;51.358;12.282;2023-07-13T17:09:13;26.30;1.00
3794;DHT22;1912;51.358;12.282;2023-07-13T17:11:43;26.40;1.00
3794;DHT22;1912;51.358;12.282;2023-07-13T17:14:18;26.30;1.00
3794;DHT22;1912;51.358;12.282;2023-07-13T17:16:47;26.20;1.00
3794;DHT22;1912;51.358;12.282;2023-07-13T17:19:17;26.30;1.00
3794;DHT22;1912;51.358;12.282;2023-07-13T17:21:45;26.20;1.00
3794;DHT22;1912;51.358;12.282;2023-07-13T17:24:20;26.10;1.00
3794;DHT22;1912;51.358;12.282;2023-07-13T17:26:49;26.10;1.00
3794;DHT22;1912;51.358;12.282;2023-07-13T17:29:16;26.10;1.00
3794;DHT22;1912;51.358;12.282;2023-07-13T17:31:43;26.10;1.00
3794;DHT22;1912;51.358;12.282;2023-07-13T17:34:14;26.10;1.00
3794;DHT22;1912;51.358;12.282;2023-07-13T17:36:45;26.00;1.00
3794;DHT22;1912;51.358;12.282;2023-07-13T17:39:14;25.90;1.00
3794;DHT22;1912;51.358;12.282;2023-07-13T17:41:42;26.10;1.00
3794;DHT22;1912;51.358;12.282;2023-07-13T17:44:10;25.90;1.00
3794;DHT22;1912;51.358;12.282;2023-07-13T17:46:37;25.80;1.00
3794;DHT22;1912;51.358;12.282;2023-07-13T17:49:03;25.70;1.00
3794;DHT22;1912;51.358;12.282;2023-07-13T17:51:31;25.80;1.00
3794;DHT22;1912;51.358;12.282;2023-07-13T17:53:57;25.80;1.00
3794;DHT22;1912;51.358;12.282;2023-07-13T17:56:23;25.60;1.00
3794;DHT22;1912;51.358;12.282;2023-07-13T17:58:50;25.50;1.00
3794;DHT22;1912;51.358;12.282;2023-07-13T18:01:18;25.60;1.00
3794;DHT22;1912;51.358;12.282;2023-07-13T18:03:47;25.50;1.00
3794;DHT22;1912;51.358;12.282;2023-07-13T18:06:17;25.40;1.00
3794;DHT22;1912;51.358;12.282;2023-07-13T18:08:54;25.50;1.00
3794;DHT22;1912;51.358;12.282;2023-07-13T18:11:21;25.40;1.00
3794;DHT22;1912;51.358;12.282;2023-07-13T18:13:48;25.30;1.00
3794;DHT22;1912;51.358;12.282;2023-07-13T18:16:16;25.30;1.00
3794;DHT22;1912;51.358;12.282;2023-07-13T18:18:44;25.20;1.00
3794;DHT22;1912;51.358;12.282;2023-07-13T18:21:11;25.10;1.00
3794;DHT22;1912;51.358;12.282;2023-07-13T18:23:37;25.00;1.00
3794;DHT22;1912;51.358;12.282;2023-07-13T18:26:09;24.80;1.00
3794;DHT22;1912;51.358;12.282;2023-07-13T18:28:35;24.70;1.00
3794;DHT22;1912;51.358;12.282;2023-07-13T18:31:01;24.70;1.00
3794;DHT22;1912;51.358;12.282;2023-07-13T18:33:30;24.70;1.00
3794;DHT22;1912;51.358;12.282;2023-07-13T18:35:58;24.70;1.00
3794;DHT22;1912;51.358;12.282;2023-07-13T18:38:26;24.60;1.00
3794;DHT22;1912;51.358;12.282;2023-07-13T18:40:55;24.50;1.00
3794;DHT22;1912;51.358;12.282;2023-07-13T18:43:22;24.50;1.00
3794;DHT22;1912;51.358;12.282;2023-07-13T18:45:51;24.40;1.00
3794;DHT22;1912;51.358;12.282;2023-07-13T18:48:22;24.00;1.00
3794;DHT22;1912;51.358;12.282;2023-07-13T18:50:50;23.90;1.00
3794;DHT22;1912;51.358;12.282;2023-07-13T18:53:17;23.70;1.00
3794;DHT22;1912;51.358;12.282;2023-07-13T18:55:45;23.60;1.00
3794;DHT22;1912;51.358;12.282;2023-07-13T18:58:12;23.30;1.00
3794;DHT22;1912;51.358;12.282;2023-07-13T19:00:39;23.40;1.00
3794;DHT22;1912;51.358;12.282;2023-07-13T19:03:17;23.20;1.00
3794;DHT22;1912;51.358;12.282;2023-07-13T19:05:46;23.20;1.00
3794;DHT22;1912;51.358;12.282;2023-07-13T19:08:21;23.10;1.00
3794;DHT22;1912;51.358;12.282;2023-07-13T19:10:50;22.80;1.00
3794;DHT22;1912;51.358;12.282;2023-07-13T19:13:25;22.70;1.00
3794;DHT22;1912;51.358;12.282;2023-07-13T19:15:53;22.70;1.00
3794;DHT22;1912;51.358;12.282;2023-07-13T19:18:20;22.70;1.00
3794;DHT22;1912;51.358;12.282;2023-07-13T19:20:49;22.50;1.00
3794;DHT22;1912;51.358;12.282;2023-07-13T19:23:29;22.60;1.00
3794;DHT22;1912;51.358;12.282;2023-07-13T19:26:02;22.60;1.00
3794;DHT22;1912;51.358;12.282;2023-07-13T19:28:37;22.40;1.00
3794;DHT22;1912;51.358;12.282;2023-07-13T19:31:05;22.40;1.00
3794;DHT22;1912;51.358;12.282;2023-07-13T19:33:39;22.20;1.00
3794;DHT22;1912;51.358;12.282;2023-07-13T19:36:06;22.20;1.00
3794;DHT22;1912;51.358;12.282;2023-07-13T19:38:35;22.00;1.00
3794;DHT22;1912;51.358;12.282;2023-07-13T19:41:01;22.00;1.00
3794;DHT22;1912;51.358;12.282;2023-07-13T19:43:26;22.00;1.00
3794;DHT22;1912;51.358;12.282;2023-07-13T19:45:52;21.90;1.00
3794;DHT22;1912;51.358;12.282;2023-07-13T19:48:19;21.80;1.00
3794;DHT22;1912;51.358;12.282;2023-07-13T19:50:45;21.80;1.00
3794;DHT22;1912;51.358;12.282;2023-07-13T19:53:17;21.70;1.00
3794;DHT22;1912;51.358;12.282;2023-07-13T19:55:45;21.60;1.00
3794;DHT22;1912;51.358;12.282;2023-07-13T19:58:10;21.70;1.00
3794;DHT22;1912;51.358;12.282;2023-07-13T20:00:36;21.60;1.00
3794;DHT22;1912;51.358;12.282;2023-07-13T20:03:04;21.50;1.00
3794;DHT22;1912;51.358;12.282;2023-07-13T20:05:29;21.60;1.00
3794;DHT22;1912;51.358;12.282;2023-07-13T20:07:57;21.50;1.00
3794;DHT22;1912;51.358;12.282;2023-07-13T20:10:28;21.50;1.00
3794;DHT22;1912;51.358;12.282;2023-07-13T20:12:56;21.40;1.00
3794;DHT22;1912;51.358;12.282;2023-07-13T20:15:25;21.20;1.00
3794;DHT22;1912;51.358;12.282;2023-07-13T20:17:55;21.20;1.00
